Terminal Aerodrome Forecast
Issued by NWS

Home | Current Version | Previous Version | Text Only | Print | Product List | Glossary On
Versions: 1 2 3 4 5 6 7 8 9 10 11 12 13 14 15 16 17 18 19 20 21 22 23 24 25 26 27 28 29 30 31 32 33 34 35 36
000
FTAK31 PAFA 250544
TAFAOT
TAF
PAOT 250544Z 2506/2606 VRB04KT 4SM -SHSN BKN025 OVC060
     FM250800 17008KT P6SM VCSH BKN025 OVC060
     FM251200 15020KT P6SM VCSH BKN020 OVC040
     FM251600 14020KT 1SM -SN BR BKN003 OVC007
     FM252000 14028G35KT 1/4SM SN FG BLSN OVC004=

USA.gov is the U.S. government's official web portal to all federal, state and local government web resources and services.